sensor_id;sensor_type;location;lat;lon;timestamp;pressure;altitude;pressure_sealevel;temperature;humidity
20930;BME280;21895;47.072;15.132;2022-08-21T00:00:23;96391.00;;;21.69;50.00
20930;BME280;21895;47.072;15.132;2022-08-21T00:02:56;96392.00;;;21.89;48.82
20930;BME280;21895;47.072;15.132;2022-08-21T00:05:24;96395.00;;;22.10;48.70
20930;BME280;21895;47.072;15.132;2022-08-21T00:07:52;96388.00;;;22.31;49.27
20930;BME280;21895;47.072;15.132;2022-08-21T00:10:20;96383.00;;;22.35;49.51
20930;BME280;21895;47.072;15.132;2022-08-21T00:12:47;96386.00;;;22.49;49.41
20930;BME280;21895;47.072;15.132;2022-08-21T00:15:21;96389.00;;;22.45;50.01
20930;BME280;21895;47.072;15.132;2022-08-21T00:17:48;96380.00;;;22.31;51.04
20930;BME280;21895;47.072;15.132;2022-08-21T00:20:16;96382.00;;;22.36;50.79
20930;BME280;21895;47.072;15.132;2022-08-21T00:22:44;96382.00;;;22.44;49.63
20930;BME280;21895;47.072;15.132;2022-08-21T00:25:13;96379.00;;;22.41;49.69
20930;BME280;21895;47.072;15.132;2022-08-21T00:27:41;96366.00;;;22.43;48.72
20930;BME280;21895;47.072;15.132;2022-08-21T00:30:24;96367.00;;;22.33;49.08
20930;BME280;21895;47.072;15.132;2022-08-21T00:32:53;96369.00;;;22.36;47.78
20930;BME280;21895;47.072;15.132;2022-08-21T00:35:26;96366.00;;;22.40;46.96
20930;BME280;21895;47.072;15.132;2022-08-21T00:37:54;96358.00;;;22.52;46.50
20930;BME280;21895;47.072;15.132;2022-08-21T00:40:39;96366.00;;;22.52;45.21
20930;BME280;21895;47.072;15.132;2022-08-21T00:43:11;96362.00;;;22.49;45.57
20930;BME280;21895;47.072;15.132;2022-08-21T00:45:39;96367.00;;;22.54;45.89
20930;BME280;21895;47.072;15.132;2022-08-21T00:48:06;96360.00;;;22.46;46.46
20930;BME280;21895;47.072;15.132;2022-08-21T00:50:39;96359.00;;;22.39;45.20
20930;BME280;21895;47.072;15.132;2022-08-21T00:53:08;96356.00;;;22.44;45.40
20930;BME280;21895;47.072;15.132;2022-08-21T00:55:37;96366.00;;;22.53;45.07
20930;BME280;21895;47.072;15.132;2022-08-21T00:58:08;96360.00;;;22.39;44.67
20930;BME280;21895;47.072;15.132;2022-08-21T01:00:40;96360.00;;;22.32;44.78
20930;BME280;21895;47.072;15.132;2022-08-21T01:03:13;96359.00;;;22.31;45.99
20930;BME280;21895;47.072;15.132;2022-08-21T01:05:42;96357.00;;;22.48;46.20
20930;BME280;21895;47.072;15.132;2022-08-21T01:08:10;96354.00;;;22.41;46.29
20930;BME280;21895;47.072;15.132;2022-08-21T01:10:37;96352.00;;;22.26;44.76
20930;BME280;21895;47.072;15.132;2022-08-21T01:13:07;96347.00;;;22.28;45.31
20930;BME280;21895;47.072;15.132;2022-08-21T01:15:40;96348.00;;;22.18;46.46
20930;BME280;21895;47.072;15.132;2022-08-21T01:18:11;96354.00;;;22.28;45.80
20930;BME280;21895;47.072;15.132;2022-08-21T01:20:43;96344.00;;;22.22;46.66
20930;BME280;21895;47.072;15.132;2022-08-21T01:23:12;96349.00;;;22.29;47.00
20930;BME280;21895;47.072;15.132;2022-08-21T01:25:38;96344.00;;;22.27;45.45
20930;BME280;21895;47.072;15.132;2022-08-21T01:28:13;96350.00;;;22.37;45.91
20930;BME280;21895;47.072;15.132;2022-08-21T01:30:43;96340.00;;;22.39;45.19
20930;BME280;21895;47.072;15.132;2022-08-21T01:33:10;96343.00;;;22.45;44.84
20930;BME280;21895;47.072;15.132;2022-08-21T01:35:37;96348.00;;;22.42;44.72
20930;BME280;21895;47.072;15.132;2022-08-21T01:38:04;96335.00;;;22.29;45.27
20930;BME280;21895;47.072;15.132;2022-08-21T01:40:31;96340.00;;;22.30;45.32
20930;BME280;21895;47.072;15.132;2022-08-21T01:42:58;96347.00;;;22.48;44.83
20930;BME280;21895;47.072;15.132;2022-08-21T01:45:25;96337.00;;;22.42;45.00
20930;BME280;21895;47.072;15.132;2022-08-21T01:47:51;96335.00;;;22.59;44.47
20930;BME280;21895;47.072;15.132;2022-08-21T01:50:20;96336.00;;;22.69;44.75
20930;BME280;21895;47.072;15.132;2022-08-21T01:52:47;96335.00;;;22.72;44.65
20930;BME280;21895;47.072;15.132;2022-08-21T01:55:16;96328.00;;;22.64;44.30
20930;BME280;21895;47.072;15.132;2022-08-21T01:57:44;96324.00;;;22.75;44.14
20930;BME280;21895;47.072;15.132;2022-08-21T02:00:14;96330.00;;;22.84;43.64
20930;BME280;21895;47.072;15.132;2022-08-21T02:02:42;96324.00;;;22.79;44.77
20930;BME280;21895;47.072;15.132;2022-08-21T02:05:11;96325.00;;;22.90;44.98
20930;BME280;21895;47.072;15.132;2022-08-21T02:07:45;96323.00;;;22.89;44.80
20930;BME280;21895;47.072;15.132;2022-08-21T02:10:18;96326.00;;;22.89;45.29
20930;BME280;21895;47.072;15.132;2022-08-21T02:12:46;96315.00;;;22.75;45.45
20930;BME280;21895;47.072;15.132;2022-08-21T02:15:13;96308.00;;;22.68;46.67
20930;BME280;21895;47.072;15.132;2022-08-21T02:17:49;96304.00;;;22.69;47.43
20930;BME280;21895;47.072;15.132;2022-08-21T02:20:31;96307.00;;;22.43;45.57
20930;BME280;21895;47.072;15.132;2022-08-21T02:22:58;96303.00;;;22.41;46.34
20930;BME280;21895;47.072;15.132;2022-08-21T02:25:27;96304.00;;;22.25;47.08
20930;BME280;21895;47.072;15.132;2022-08-21T02:27:55;96318.00;;;22.26;46.34
20930;BME280;21895;47.072;15.132;2022-08-21T02:30:26;96310.00;;;22.42;46.08
20930;BME280;21895;47.072;15.132;2022-08-21T02:32:53;96300.00;;;22.53;45.84
20930;BME280;21895;47.072;15.132;2022-08-21T02:35:20;96309.00;;;22.52;46.00
20930;BME280;21895;47.072;15.132;2022-08-21T02:38:00;96298.00;;;22.33;47.12
20930;BME280;21895;47.072;15.132;2022-08-21T02:40:35;96305.00;;;22.02;47.76
20930;BME280;21895;47.072;15.132;2022-08-21T02:43:05;96305.00;;;22.15;47.24
20930;BME280;21895;47.072;15.132;2022-08-21T02:45:33;96297.00;;;22.16;48.25
20930;BME280;21895;47.072;15.132;2022-08-21T02:48:07;96300.00;;;22.20;46.86
20930;BME280;21895;47.072;15.132;2022-08-21T02:50:43;96294.00;;;22.28;46.59
20930;BME280;21895;47.072;15.132;2022-08-21T02:53:13;96300.00;;;22.32;45.93
20930;BME280;21895;47.072;15.132;2022-08-21T02:55:46;96294.00;;;22.32;46.35
20930;BME280;21895;47.072;15.132;2022-08-21T02:58:17;96300.00;;;22.22;46.66
20930;BME280;21895;47.072;15.132;2022-08-21T03:00:45;96297.00;;;22.41;46.21
20930;BME280;21895;47.072;15.132;2022-08-21T03:03:13;96309.00;;;22.17;47.28
20930;BME280;21895;47.072;15.132;2022-08-21T03:05:41;96296.00;;;22.14;47.99
20930;BME280;21895;47.072;15.132;2022-08-21T03:08:11;96295.00;;;22.08;47.52
20930;BME280;21895;47.072;15.132;2022-08-21T03:10:41;96291.00;;;22.16;47.82
20930;BME280;21895;47.072;15.132;2022-08-21T03:13:09;96288.00;;;22.16;48.60
20930;BME280;21895;47.072;15.132;2022-08-21T03:15:37;96291.00;;;22.18;47.92
20930;BME280;21895;47.072;15.132;2022-08-21T03:18:04;96290.00;;;22.20;46.19
20930;BME280;21895;47.072;15.132;2022-08-21T03:20:33;96298.00;;;22.35;45.58
20930;BME280;21895;47.072;15.132;2022-08-21T03:23:02;96286.00;;;22.48;45.17
20930;BME280;21895;47.072;15.132;2022-08-21T03:25:33;96280.00;;;22.49;45.30
20930;BME280;21895;47.072;15.132;2022-08-21T03:28:15;96286.00;;;22.44;45.28
20930;BME280;21895;47.072;15.132;2022-08-21T03:30:45;96283.00;;;22.56;45.16
20930;BME280;21895;47.072;15.132;2022-08-21T03:33:13;96287.00;;;22.48;45.04
20930;BME280;21895;47.072;15.132;2022-08-21T03:35:45;96286.00;;;22.41;46.23
20930;BME280;21895;47.072;15.132;2022-08-21T03:38:15;96293.00;;;22.49;46.56
20930;BME280;21895;47.072;15.132;2022-08-21T03:40:43;96288.00;;;22.56;45.63
20930;BME280;21895;47.072;15.132;2022-08-21T03:43:10;96304.00;;;22.61;45.82
20930;BME280;21895;47.072;15.132;2022-08-21T03:45:38;96303.00;;;22.69;46.21
20930;BME280;21895;47.072;15.132;2022-08-21T03:48:07;96295.00;;;22.57;47.19
20930;BME280;21895;47.072;15.132;2022-08-21T03:50:39;96314.00;;;22.67;46.84
20930;BME280;21895;47.072;15.132;2022-08-21T03:53:09;96300.00;;;22.60;46.44
20930;BME280;21895;47.072;15.132;2022-08-21T03:55:46;96304.00;;;22.57;47.11
20930;BME280;21895;47.072;15.132;2022-08-21T03:58:16;96303.00;;;22.48;47.33
20930;BME280;21895;47.072;15.132;2022-08-21T04:00:46;96313.00;;;22.51;47.21
20930;BME280;21895;47.072;15.132;2022-08-21T04:03:13;96311.00;;;22.32;46.17
20930;BME280;21895;47.072;15.132;2022-08-21T04:05:40;96309.00;;;22.32;46.21
20930;BME280;21895;47.072;15.132;2022-08-21T04:08:07;96305.00;;;22.41;46.79
20930;BME280;21895;47.072;15.132;2022-08-21T04:10:38;96322.00;;;22.46;47.42
20930;BME280;21895;47.072;15.132;2022-08-21T04:13:06;96308.00;;;22.44;46.42
20930;BME280;21895;47.072;15.132;2022-08-21T04:15:34;96311.00;;;22.46;46.27
20930;BME280;21895;47.072;15.132;2022-08-21T04:18:01;96306.00;;;22.58;46.00
20930;BME280;21895;47.072;15.132;2022-08-21T04:20:27;96297.00;;;22.60;46.74
20930;BME280;21895;47.072;15.132;2022-08-21T04:22:55;96302.00;;;22.65;47.32
20930;BME280;21895;47.072;15.132;2022-08-21T04:25:23;96301.00;;;22.66;47.19
20930;BME280;21895;47.072;15.132;2022-08-21T04:27:51;96308.00;;;22.72;47.26
20930;BME280;21895;47.072;15.132;2022-08-21T04:30:19;96307.00;;;22.68;47.47
20930;BME280;21895;47.072;15.132;2022-08-21T04:32:48;96300.00;;;22.69;47.56
20930;BME280;21895;47.072;15.132;2022-08-21T04:35:22;96298.00;;;22.79;47.57
20930;BME280;21895;47.072;15.132;2022-08-21T04:37:49;96307.00;;;22.89;47.49
20930;BME280;21895;47.072;15.132;2022-08-21T04:40:19;96300.00;;;22.79;47.42
20930;BME280;21895;47.072;15.132;2022-08-21T04:42:55;96308.00;;;22.75;47.61
20930;BME280;21895;47.072;15.132;2022-08-21T04:45:26;96312.00;;;22.97;47.25
20930;BME280;21895;47.072;15.132;2022-08-21T04:47:57;96310.00;;;22.94;47.29
20930;BME280;21895;47.072;15.132;2022-08-21T04:51:18;96312.00;;;22.80;47.40
20930;BME280;21895;47.072;15.132;2022-08-21T04:53:53;96315.00;;;22.90;47.16
20930;BME280;21895;47.072;15.132;2022-08-21T04:57:06;96325.00;;;22.90;47.32
20930;BME280;21895;47.072;15.132;2022-08-21T04:59:47;96326.00;;;22.92;46.58
20930;BME280;21895;47.072;15.132;2022-08-21T05:02:14;96327.00;;;22.91;47.32
20930;BME280;21895;47.072;15.132;2022-08-21T05:04:50;96322.00;;;23.00;46.88
20930;BME280;21895;47.072;15.132;2022-08-21T05:07:24;96324.00;;;23.13;46.63
20930;BME280;21895;47.072;15.132;2022-08-21T05:10:09;96328.00;;;23.16;46.37
20930;BME280;21895;47.072;15.132;2022-08-21T05:12:38;96326.00;;;23.34;47.32
20930;BME280;21895;47.072;15.132;2022-08-21T05:15:06;96322.00;;;23.36;47.67
20930;BME280;21895;47.072;15.132;2022-08-21T05:17:38;96332.00;;;23.01;46.43
20930;BME280;21895;47.072;15.132;2022-08-21T05:20:05;96316.00;;;22.93;45.75
20930;BME280;21895;47.072;15.132;2022-08-21T05:22:32;96330.00;;;23.03;45.54
20930;BME280;21895;47.072;15.132;2022-08-21T05:24:58;96325.00;;;23.02;44.74
20930;BME280;21895;47.072;15.132;2022-08-21T05:27:25;96332.00;;;23.03;45.06
20930;BME280;21895;47.072;15.132;2022-08-21T05:29:53;96330.00;;;22.95;45.34
20930;BME280;21895;47.072;15.132;2022-08-21T05:32:20;96337.00;;;22.94;45.16
20930;BME280;21895;47.072;15.132;2022-08-21T05:34:47;96339.00;;;23.14;44.45
20930;BME280;21895;47.072;15.132;2022-08-21T05:37:13;96335.00;;;23.28;44.70
20930;BME280;21895;47.072;15.132;2022-08-21T05:39:40;96339.00;;;23.33;44.10
20930;BME280;21895;47.072;15.132;2022-08-21T05:42:48;96349.00;;;23.31;44.34
20930;BME280;21895;47.072;15.132;2022-08-21T05:45:30;96347.00;;;23.45;44.93
20930;BME280;21895;47.072;15.132;2022-08-21T05:48:20;96337.00;;;23.61;44.33
20930;BME280;21895;47.072;15.132;2022-08-21T05:50:49;96350.00;;;23.82;44.25
20930;BME280;21895;47.072;15.132;2022-08-21T05:53:19;96362.00;;;23.57;44.59
20930;BME280;21895;47.072;15.132;2022-08-21T05:55:48;96360.00;;;23.40;45.56
20930;BME280;21895;47.072;15.132;2022-08-21T05:58:18;96365.00;;;23.54;44.83
20930;BME280;21895;47.072;15.132;2022-08-21T06:00:46;96362.00;;;23.45;45.05
20930;BME280;21895;47.072;15.132;2022-08-21T06:03:24;96351.00;;;23.23;44.72
20930;BME280;21895;47.072;15.132;2022-08-21T06:05:52;96353.00;;;22.99;45.00
20930;BME280;21895;47.072;15.132;2022-08-21T06:08:20;96358.00;;;23.18;44.33
20930;BME280;21895;47.072;15.132;2022-08-21T06:10:49;96352.00;;;23.14;44.41
20930;BME280;21895;47.072;15.132;2022-08-21T06:13:18;96350.00;;;23.23;44.45
20930;BME280;21895;47.072;15.132;2022-08-21T06:15:46;96358.00;;;23.38;43.97
20930;BME280;21895;47.072;15.132;2022-08-21T06:18:14;96361.00;;;23.28;44.13
20930;BME280;21895;47.072;15.132;2022-08-21T06:20:41;96355.00;;;23.18;44.97
20930;BME280;21895;47.072;15.132;2022-08-21T06:23:08;96355.00;;;23.05;45.10
20930;BME280;21895;47.072;15.132;2022-08-21T06:25:35;96359.00;;;23.11;44.94
20930;BME280;21895;47.072;15.132;2022-08-21T06:28:09;96360.00;;;23.22;44.53
20930;BME280;21895;47.072;15.132;2022-08-21T06:30:38;96362.00;;;23.20;45.09
20930;BME280;21895;47.072;15.132;2022-08-21T06:33:05;96361.00;;;23.23;45.41
20930;BME280;21895;47.072;15.132;2022-08-21T06:35:33;96365.00;;;23.22;44.90
20930;BME280;21895;47.072;15.132;2022-08-21T06:38:00;96374.00;;;23.31;44.73
20930;BME280;21895;47.072;15.132;2022-08-21T06:40:29;96373.00;;;23.31;44.51
20930;BME280;21895;47.072;15.132;2022-08-21T06:42:58;96373.00;;;23.45;44.46
20930;BME280;21895;47.072;15.132;2022-08-21T06:45:25;96380.00;;;23.54;44.44
20930;BME280;21895;47.072;15.132;2022-08-21T06:47:54;96375.00;;;23.63;44.27
20930;BME280;21895;47.072;15.132;2022-08-21T06:50:20;96380.00;;;23.61;44.45
20930;BME280;21895;47.072;15.132;2022-08-21T06:52:47;96378.00;;;23.46;44.75
20930;BME280;21895;47.072;15.132;2022-08-21T06:55:13;96393.00;;;23.50;44.96
20930;BME280;21895;47.072;15.132;2022-08-21T06:57:48;96387.00;;;23.41;44.80
20930;BME280;21895;47.072;15.132;2022-08-21T07:00:19;96389.00;;;23.51;44.75
20930;BME280;21895;47.072;15.132;2022-08-21T07:02:46;96390.00;;;23.71;44.58
20930;BME280;21895;47.072;15.132;2022-08-21T07:05:12;96394.00;;;23.74;44.17
20930;BME280;21895;47.072;15.132;2022-08-21T07:07:46;96397.00;;;23.82;45.24
20930;BME280;21895;47.072;15.132;2022-08-21T07:10:15;96394.00;;;23.82;44.56
20930;BME280;21895;47.072;15.132;2022-08-21T07:12:52;96397.00;;;23.63;45.79
20930;BME280;21895;47.072;15.132;2022-08-21T07:15:29;96403.00;;;23.51;47.42
20930;BME280;21895;47.072;15.132;2022-08-21T07:17:58;96398.00;;;23.57;47.49
20930;BME280;21895;47.072;15.132;2022-08-21T07:20:29;96403.00;;;23.74;47.74
20930;BME280;21895;47.072;15.132;2022-08-21T07:23:00;96390.00;;;23.90;45.96
20930;BME280;21895;47.072;15.132;2022-08-21T07:25:27;96398.00;;;23.88;45.53
20930;BME280;21895;47.072;15.132;2022-08-21T07:27:53;96391.00;;;23.94;46.10
20930;BME280;21895;47.072;15.132;2022-08-21T07:30:20;96398.00;;;23.94;44.53
20930;BME280;21895;47.072;15.132;2022-08-21T07:32:47;96396.00;;;23.94;43.92
20930;BME280;21895;47.072;15.132;2022-08-21T07:35:17;96397.00;;;23.98;44.42
20930;BME280;21895;47.072;15.132;2022-08-21T07:37:44;96407.00;;;24.15;44.41
20930;BME280;21895;47.072;15.132;2022-08-21T07:40:12;96402.00;;;24.19;44.09
20930;BME280;21895;47.072;15.132;2022-08-21T07:42:43;96395.00;;;24.28;43.49
20930;BME280;21895;47.072;15.132;2022-08-21T07:45:11;96395.00;;;24.21;43.99
20930;BME280;21895;47.072;15.132;2022-08-21T07:47:38;96394.00;;;24.15;44.57
20930;BME280;21895;47.072;15.132;2022-08-21T07:50:11;96393.00;;;24.32;43.90
20930;BME280;21895;47.072;15.132;2022-08-21T07:52:40;96392.00;;;24.61;43.29
20930;BME280;21895;47.072;15.132;2022-08-21T07:55:12;96390.00;;;24.66;43.14
20930;BME280;21895;47.072;15.132;2022-08-21T07:57:39;96401.00;;;24.46;43.54
20930;BME280;21895;47.072;15.132;2022-08-21T08:00:11;96402.00;;;24.41;43.60
20930;BME280;21895;47.072;15.132;2022-08-21T08:02:39;96400.00;;;24.36;43.68
20930;BME280;21895;47.072;15.132;2022-08-21T08:05:10;96397.00;;;24.43;43.76
20930;BME280;21895;47.072;15.132;2022-08-21T08:07:38;96397.00;;;24.43;43.61
20930;BME280;21895;47.072;15.132;2022-08-21T08:10:07;96402.00;;;24.47;44.20
20930;BME280;21895;47.072;15.132;2022-08-21T08:12:39;96389.00;;;24.47;44.46
20930;BME280;21895;47.072;15.132;2022-08-21T08:15:13;96389.00;;;24.59;44.32
20930;BME280;21895;47.072;15.132;2022-08-21T08:17:40;96393.00;;;24.42;44.59
20930;BME280;21895;47.072;15.132;2022-08-21T08:20:09;96397.00;;;24.35;45.30
20930;BME280;21895;47.072;15.132;2022-08-21T08:22:38;96395.00;;;24.43;46.94
20930;BME280;21895;47.072;15.132;2022-08-21T08:25:07;96392.00;;;24.59;50.17
20930;BME280;21895;47.072;15.132;2022-08-21T08:27:36;96391.00;;;24.81;45.04
20930;BME280;21895;47.072;15.132;2022-08-21T08:30:04;96387.00;;;24.75;43.93
20930;BME280;21895;47.072;15.132;2022-08-21T08:32:32;96382.00;;;24.82;43.88
20930;BME280;21895;47.072;15.132;2022-08-21T08:34:59;96382.00;;;24.72;42.99
20930;BME280;21895;47.072;15.132;2022-08-21T08:37:25;96375.00;;;24.67;43.70
20930;BME280;21895;47.072;15.132;2022-08-21T08:40:00;96384.00;;;24.80;42.96
20930;BME280;21895;47.072;15.132;2022-08-21T08:42:35;96394.00;;;25.07;42.62
20930;BME280;21895;47.072;15.132;2022-08-21T08:45:13;96390.00;;;25.00;43.17
20930;BME280;21895;47.072;15.132;2022-08-21T08:47:53;96385.00;;;25.19;42.47
20930;BME280;21895;47.072;15.132;2022-08-21T08:52:49;96393.00;;;25.31;41.68
20930;BME280;21895;47.072;15.132;2022-08-21T08:55:26;96396.00;;;25.19;42.23
20930;BME280;21895;47.072;15.132;2022-08-21T08:57:55;96385.00;;;25.28;41.69
20930;BME280;21895;47.072;15.132;2022-08-21T09:00:24;96385.00;;;25.14;42.57
20930;BME280;21895;47.072;15.132;2022-08-21T09:02:55;96384.00;;;25.44;41.34
20930;BME280;21895;47.072;15.132;2022-08-21T09:05:36;96396.00;;;25.44;42.00
20930;BME280;21895;47.072;15.132;2022-08-21T09:11:09;96387.00;;;25.27;41.73
20930;BME280;21895;47.072;15.132;2022-08-21T09:22:48;96389.00;;;26.12;41.49
20930;BME280;21895;47.072;15.132;2022-08-21T09:25:31;96397.00;;;26.12;41.69
20930;BME280;21895;47.072;15.132;2022-08-21T09:27:58;96395.00;;;26.06;42.37
20930;BME280;21895;47.072;15.132;2022-08-21T09:30:31;96399.00;;;26.39;42.37
20930;BME280;21895;47.072;15.132;2022-08-21T09:32:58;96403.00;;;26.49;40.81
20930;BME280;21895;47.072;15.132;2022-08-21T09:35:26;96392.00;;;26.49;39.36
20930;BME280;21895;47.072;15.132;2022-08-21T09:38:05;96387.00;;;26.30;40.12
20930;BME280;21895;47.072;15.132;2022-08-21T09:40:46;96389.00;;;26.12;40.97
20930;BME280;21895;47.072;15.132;2022-08-21T09:43:23;96393.00;;;26.01;40.93
20930;BME280;21895;47.072;15.132;2022-08-21T09:46:11;96386.00;;;25.93;40.25
20930;BME280;21895;47.072;15.132;2022-08-21T09:48:45;96384.00;;;25.86;41.91
20930;BME280;21895;47.072;15.132;2022-08-21T09:51:20;96387.00;;;26.16;41.16
20930;BME280;21895;47.072;15.132;2022-08-21T09:54:18;96382.00;;;26.23;41.18
20930;BME280;21895;47.072;15.132;2022-08-21T09:57:15;96390.00;;;26.28;40.59
20930;BME280;21895;47.072;15.132;2022-08-21T10:00:28;96393.00;;;25.56;41.69
20930;BME280;21895;47.072;15.132;2022-08-21T10:03:20;96393.00;;;24.89;43.14
20930;BME280;21895;47.072;15.132;2022-08-21T10:05:57;96393.00;;;24.75;43.64
20930;BME280;21895;47.072;15.132;2022-08-21T10:08:27;96392.00;;;24.92;44.34
20930;BME280;21895;47.072;15.132;2022-08-21T10:11:13;96378.00;;;25.08;43.80
20930;BME280;21895;47.072;15.132;2022-08-21T10:18:35;96375.00;;;25.20;43.30
20930;BME280;21895;47.072;15.132;2022-08-21T10:29:22;96367.00;;;26.80;40.09
20930;BME280;21895;47.072;15.132;2022-08-21T10:33:16;96375.00;;;27.29;40.16
20930;BME280;21895;47.072;15.132;2022-08-21T10:40:36;96360.00;;;27.30;39.88
20930;BME280;21895;47.072;15.132;2022-08-21T10:45:13;96363.00;;;27.22;40.47
20930;BME280;21895;47.072;15.132;2022-08-21T10:47:52;96363.00;;;26.73;40.03
20930;BME280;21895;47.072;15.132;2022-08-21T10:51:04;96366.00;;;26.39;41.14
20930;BME280;21895;47.072;15.132;2022-08-21T10:54:03;96354.00;;;26.44;40.92
20930;BME280;21895;47.072;15.132;2022-08-21T10:56:35;96362.00;;;26.46;41.32
20930;BME280;21895;47.072;15.132;2022-08-21T10:59:51;96372.00;;;25.96;41.42
20930;BME280;21895;47.072;15.132;2022-08-21T11:04:08;96345.00;;;25.44;42.39
20930;BME280;21895;47.072;15.132;2022-08-21T11:06:41;96356.00;;;26.07;41.42
20930;BME280;21895;47.072;15.132;2022-08-21T11:09:22;96351.00;;;26.25;41.32
20930;BME280;21895;47.072;15.132;2022-08-21T11:12:22;96358.00;;;25.61;42.34
20930;BME280;21895;47.072;15.132;2022-08-21T11:15:11;96356.00;;;25.79;42.49
20930;BME280;21895;47.072;15.132;2022-08-21T11:18:41;96355.00;;;26.03;42.13
20930;BME280;21895;47.072;15.132;2022-08-21T11:24:24;96351.00;;;26.16;41.59
20930;BME280;21895;47.072;15.132;2022-08-21T11:27:17;96346.00;;;25.74;42.48
20930;BME280;21895;47.072;15.132;2022-08-21T11:29:52;96347.00;;;25.99;42.78
20930;BME280;21895;47.072;15.132;2022-08-21T11:35:37;96355.00;;;26.38;41.68
20930;BME280;21895;47.072;15.132;2022-08-21T11:38:35;96344.00;;;26.22;40.90
20930;BME280;21895;47.072;15.132;2022-08-21T11:41:32;96348.00;;;26.26;41.12
20930;BME280;21895;47.072;15.132;2022-08-21T11:45:27;96346.00;;;26.62;40.79
20930;BME280;21895;47.072;15.132;2022-08-21T11:51:11;96354.00;;;26.35;40.92
20930;BME280;21895;47.072;15.132;2022-08-21T11:54:33;96356.00;;;26.68;41.27
20930;BME280;21895;47.072;15.132;2022-08-21T11:57:17;96354.00;;;26.65;41.30
20930;BME280;21895;47.072;15.132;2022-08-21T12:00:13;96356.00;;;26.92;40.84
20930;BME280;21895;47.072;15.132;2022-08-21T12:02:50;96362.00;;;26.42;40.89
20930;BME280;21895;47.072;15.132;2022-08-21T12:06:41;96347.00;;;26.12;41.84
20930;BME280;21895;47.072;15.132;2022-08-21T12:12:26;96347.00;;;26.24;41.98
20930;BME280;21895;47.072;15.132;2022-08-21T12:17:37;96352.00;;;26.04;41.43
20930;BME280;21895;47.072;15.132;2022-08-21T12:24:20;96346.00;;;26.44;40.65
20930;BME280;21895;47.072;15.132;2022-08-21T12:27:13;96352.00;;;26.23;41.23
20930;BME280;21895;47.072;15.132;2022-08-21T12:30:01;96339.00;;;26.19;42.50
20930;BME280;21895;47.072;15.132;2022-08-21T12:32:46;96333.00;;;26.53;41.00
20930;BME280;21895;47.072;15.132;2022-08-21T12:35:27;96327.00;;;26.65;40.38
20930;BME280;21895;47.072;15.132;2022-08-21T12:38:59;96332.00;;;26.83;40.68
20930;BME280;21895;47.072;15.132;2022-08-21T12:41:34;96339.00;;;26.43;40.00
20930;BME280;21895;47.072;15.132;2022-08-21T12:44:43;96335.00;;;26.16;40.83
20930;BME280;21895;47.072;15.132;2022-08-21T12:47:50;96340.00;;;25.98;40.84
20930;BME280;21895;47.072;15.132;2022-08-21T12:50:45;96328.00;;;25.73;41.52
20930;BME280;21895;47.072;15.132;2022-08-21T12:53:41;96324.00;;;25.46;42.27
20930;BME280;21895;47.072;15.132;2022-08-21T12:56:22;96328.00;;;25.58;41.91
20930;BME280;21895;47.072;15.132;2022-08-21T12:59:05;96331.00;;;25.86;41.66
20930;BME280;21895;47.072;15.132;2022-08-21T13:01:39;96332.00;;;25.72;42.20
20930;BME280;21895;47.072;15.132;2022-08-21T13:04:17;96336.00;;;25.79;42.24
20930;BME280;21895;47.072;15.132;2022-08-21T13:06:53;96332.00;;;25.85;42.12
20930;BME280;21895;47.072;15.132;2022-08-21T13:09:28;96331.00;;;25.86;42.24
20930;BME280;21895;47.072;15.132;2022-08-21T13:11:57;96334.00;;;25.42;43.04
20930;BME280;21895;47.072;15.132;2022-08-21T13:14:37;96337.00;;;25.55;43.57
20930;BME280;21895;47.072;15.132;2022-08-21T13:17:17;96335.00;;;25.64;43.10
20930;BME280;21895;47.072;15.132;2022-08-21T13:20:06;96326.00;;;25.72;42.88
20930;BME280;21895;47.072;15.132;2022-08-21T13:22:42;96334.00;;;26.04;42.29
20930;BME280;21895;47.072;15.132;2022-08-21T13:25:15;96334.00;;;25.70;42.28
20930;BME280;21895;47.072;15.132;2022-08-21T13:27:57;96347.00;;;25.51;42.92
20930;BME280;21895;47.072;15.132;2022-08-21T13:30:24;96334.00;;;25.35;42.59
20930;BME280;21895;47.072;15.132;2022-08-21T13:33:00;96339.00;;;25.35;43.60
20930;BME280;21895;47.072;15.132;2022-08-21T13:36:04;96339.00;;;25.14;43.74
20930;BME280;21895;47.072;15.132;2022-08-21T13:38:36;96348.00;;;24.83;44.30
20930;BME280;21895;47.072;15.132;2022-08-21T13:42:56;96352.00;;;24.61;44.78
20930;BME280;21895;47.072;15.132;2022-08-21T13:45:32;96358.00;;;24.30;45.46
20930;BME280;21895;47.072;15.132;2022-08-21T13:48:01;96354.00;;;24.06;45.90
20930;BME280;21895;47.072;15.132;2022-08-21T13:50:36;96366.00;;;24.34;45.68
20930;BME280;21895;47.072;15.132;2022-08-21T13:53:18;96365.00;;;24.58;46.04
20930;BME280;21895;47.072;15.132;2022-08-21T13:55:45;96362.00;;;24.96;45.51
20930;BME280;21895;47.072;15.132;2022-08-21T13:58:12;96363.00;;;25.40;44.31
20930;BME280;21895;47.072;15.132;2022-08-21T14:00:52;96368.00;;;25.34;43.73
20930;BME280;21895;47.072;15.132;2022-08-21T14:03:42;96357.00;;;25.15;44.68
20930;BME280;21895;47.072;15.132;2022-08-21T14:06:17;96358.00;;;25.19;44.71
20930;BME280;21895;47.072;15.132;2022-08-21T14:08:56;96359.00;;;25.32;44.54
20930;BME280;21895;47.072;15.132;2022-08-21T14:11:25;96355.00;;;25.25;43.85
20930;BME280;21895;47.072;15.132;2022-08-21T14:14:04;96359.00;;;25.20;44.11
20930;BME280;21895;47.072;15.132;2022-08-21T14:17:00;96359.00;;;25.38;44.14
20930;BME280;21895;47.072;15.132;2022-08-21T14:19:49;96351.00;;;25.18;44.54
20930;BME280;21895;47.072;15.132;2022-08-21T14:22:49;96357.00;;;24.73;45.34
20930;BME280;21895;47.072;15.132;2022-08-21T14:26:00;96363.00;;;24.30;45.96
20930;BME280;21895;47.072;15.132;2022-08-21T14:28:40;96366.00;;;24.50;46.52